Archival Weather

Half Moon Bay

Half Moon Bay, California (KHAF)

Report from: Wednesday, December 6, 2023 12:15 AM PST
Current time: Saturday, February 24, 2024 8:26 AM PST

Current weather – Weather history – Daily summaries
Weather forecast

Temperature10.0°C (50.0°F)
Dew point10.0°C (50.0°F)
Winds Calm
Visibility7 mi. (11.3 km)
Clouds Ceiling: Overcast 300 ft. (91 m)
Altimeter30.09 in.Hg (1019 mB)
Relative humidity100 %
Density altitude-618 ft. (-188 m)
Remarks Fully automated report
Automated weather observing station with precipitation discriminator
Flight conditions Low Instrument Meteorological Conditions
Raw dataKHAF 060815Z AUTO 00000KT 7SM OVC003 10/10 A3009 RMK AO2
An error has occurred. This application may no longer respond until reloaded. Reload 🗙